sensor_id;sensor_type;location;lat;lon;timestamp;P1;durP1;ratioP1;P2;durP2;ratioP2
37997;SDS011;24079;51.824;4.682;2023-11-21T00:01:17;40.58;;;16.05;;
37997;SDS011;24079;51.824;4.682;2023-11-21T00:03:42;33.40;;;15.40;;
37997;SDS011;24079;51.824;4.682;2023-11-21T00:06:08;40.72;;;16.85;;
37997;SDS011;24079;51.824;4.682;2023-11-21T00:08:35;36.35;;;15.50;;
37997;SDS011;24079;51.824;4.682;2023-11-21T00:11:01;36.08;;;15.77;;
37997;SDS011;24079;51.824;4.682;2023-11-21T00:13:27;34.63;;;15.80;;
37997;SDS011;24079;51.824;4.682;2023-11-21T00:15:53;39.08;;;17.33;;
37997;SDS011;24079;51.824;4.682;2023-11-21T00:18:18;30.48;;;15.20;;
37997;SDS011;24079;51.824;4.682;2023-11-21T00:20:44;36.92;;;17.20;;
37997;SDS011;24079;51.824;4.682;2023-11-21T00:23:10;34.17;;;15.68;;
37997;SDS011;24079;51.824;4.682;2023-11-21T00:25:37;34.95;;;15.43;;
37997;SDS011;24079;51.824;4.682;2023-11-21T00:28:02;37.22;;;14.63;;
37997;SDS011;24079;51.824;4.682;2023-11-21T00:30:28;33.80;;;14.68;;
37997;SDS011;24079;51.824;4.682;2023-11-21T00:32:55;35.42;;;14.50;;
37997;SDS011;24079;51.824;4.682;2023-11-21T00:35:20;29.83;;;14.57;;
37997;SDS011;24079;51.824;4.682;2023-11-21T00:37:46;35.78;;;15.45;;
37997;SDS011;24079;51.824;4.682;2023-11-21T00:40:14;33.42;;;14.13;;
37997;SDS011;24079;51.824;4.682;2023-11-21T00:42:41;38.55;;;14.32;;
37997;SDS011;24079;51.824;4.682;2023-11-21T00:45:07;39.17;;;14.43;;
37997;SDS011;24079;51.824;4.682;2023-11-21T00:47:33;27.73;;;12.70;;
37997;SDS011;24079;51.824;4.682;2023-11-21T00:49:59;31.25;;;13.30;;
37997;SDS011;24079;51.824;4.682;2023-11-21T00:52:24;31.90;;;13.40;;
37997;SDS011;24079;51.824;4.682;2023-11-21T00:54:50;27.92;;;12.07;;
37997;SDS011;24079;51.824;4.682;2023-11-21T00:57:15;27.88;;;12.48;;
37997;SDS011;24079;51.824;4.682;2023-11-21T00:59:41;28.02;;;12.98;;
37997;SDS011;24079;51.824;4.682;2023-11-21T01:02:07;30.80;;;11.85;;
37997;SDS011;24079;51.824;4.682;2023-11-21T01:04:35;33.65;;;12.00;;
37997;SDS011;24079;51.824;4.682;2023-11-21T01:07:01;29.27;;;12.38;;
37997;SDS011;24079;51.824;4.682;2023-11-21T01:09:26;33.13;;;12.40;;
37997;SDS011;24079;51.824;4.682;2023-11-21T01:11:53;26.45;;;11.68;;
37997;SDS011;24079;51.824;4.682;2023-11-21T01:14:18;32.85;;;11.35;;
37997;SDS011;24079;51.824;4.682;2023-11-21T01:16:44;29.98;;;10.77;;
37997;SDS011;24079;51.824;4.682;2023-11-21T01:19:10;28.15;;;11.43;;
37997;SDS011;24079;51.824;4.682;2023-11-21T01:21:35;29.88;;;11.27;;
37997;SDS011;24079;51.824;4.682;2023-11-21T01:24:01;26.88;;;10.75;;
37997;SDS011;24079;51.824;4.682;2023-11-21T01:26:27;26.58;;;9.93;;
37997;SDS011;24079;51.824;4.682;2023-11-21T01:28:53;23.00;;;9.65;;
37997;SDS011;24079;51.824;4.682;2023-11-21T01:31:19;22.80;;;9.57;;
37997;SDS011;24079;51.824;4.682;2023-11-21T01:33:45;25.50;;;9.23;;
37997;SDS011;24079;51.824;4.682;2023-11-21T01:36:11;20.52;;;9.48;;
37997;SDS011;24079;51.824;4.682;2023-11-21T01:38:37;20.88;;;9.85;;
37997;SDS011;24079;51.824;4.682;2023-11-21T01:41:02;20.50;;;9.40;;
37997;SDS011;24079;51.824;4.682;2023-11-21T01:43:28;27.30;;;10.75;;
37997;SDS011;24079;51.824;4.682;2023-11-21T01:45:57;27.48;;;10.38;;
37997;SDS011;24079;51.824;4.682;2023-11-21T01:48:23;25.05;;;10.20;;
37997;SDS011;24079;51.824;4.682;2023-11-21T01:50:49;30.33;;;11.60;;
37997;SDS011;24079;51.824;4.682;2023-11-21T01:53:16;28.77;;;10.90;;
37997;SDS011;24079;51.824;4.682;2023-11-21T01:55:41;33.40;;;10.85;;
37997;SDS011;24079;51.824;4.682;2023-11-21T01:58:09;30.10;;;10.52;;
37997;SDS011;24079;51.824;4.682;2023-11-21T02:00:37;24.38;;;10.63;;
37997;SDS011;24079;51.824;4.682;2023-11-21T02:03:03;31.67;;;10.95;;
37997;SDS011;24079;51.824;4.682;2023-11-21T02:05:29;33.38;;;11.32;;
37997;SDS011;24079;51.824;4.682;2023-11-21T02:07:55;26.88;;;10.70;;
37997;SDS011;24079;51.824;4.682;2023-11-21T02:10:21;24.35;;;9.90;;
37997;SDS011;24079;51.824;4.682;2023-11-21T02:12:50;33.90;;;10.68;;
37997;SDS011;24079;51.824;4.682;2023-11-21T02:15:18;23.50;;;9.43;;
37997;SDS011;24079;51.824;4.682;2023-11-21T02:17:52;30.23;;;10.52;;
37997;SDS011;24079;51.824;4.682;2023-11-21T02:20:22;24.35;;;9.52;;
37997;SDS011;24079;51.824;4.682;2023-11-21T02:22:53;25.20;;;9.80;;
37997;SDS011;24079;51.824;4.682;2023-11-21T02:25:30;24.90;;;9.60;;
37997;SDS011;24079;51.824;4.682;2023-11-21T02:28:02;26.55;;;10.05;;
37997;SDS011;24079;51.824;4.682;2023-11-21T02:30:29;29.75;;;10.15;;
37997;SDS011;24079;51.824;4.682;2023-11-21T02:32:57;23.73;;;9.18;;
37997;SDS011;24079;51.824;4.682;2023-11-21T02:35:23;23.35;;;10.45;;
37997;SDS011;24079;51.824;4.682;2023-11-21T02:37:51;27.15;;;10.52;;
37997;SDS011;24079;51.824;4.682;2023-11-21T02:40:17;21.80;;;9.30;;
37997;SDS011;24079;51.824;4.682;2023-11-21T02:42:49;30.17;;;10.52;;
37997;SDS011;24079;51.824;4.682;2023-11-21T02:45:19;25.30;;;9.80;;
37997;SDS011;24079;51.824;4.682;2023-11-21T02:47:46;22.02;;;9.65;;
37997;SDS011;24079;51.824;4.682;2023-11-21T02:50:12;27.58;;;9.75;;
37997;SDS011;24079;51.824;4.682;2023-11-21T02:52:38;28.83;;;9.93;;
37997;SDS011;24079;51.824;4.682;2023-11-21T02:55:05;27.65;;;10.43;;
37997;SDS011;24079;51.824;4.682;2023-11-21T02:57:32;20.17;;;9.52;;
37997;SDS011;24079;51.824;4.682;2023-11-21T02:59:58;24.58;;;9.52;;
37997;SDS011;24079;51.824;4.682;2023-11-21T03:02:25;21.80;;;9.68;;
37997;SDS011;24079;51.824;4.682;2023-11-21T03:04:50;22.33;;;9.90;;
37997;SDS011;24079;51.824;4.682;2023-11-21T03:07:17;22.77;;;9.52;;
37997;SDS011;24079;51.824;4.682;2023-11-21T03:09:44;26.08;;;9.77;;
37997;SDS011;24079;51.824;4.682;2023-11-21T03:12:13;24.50;;;9.73;;
37997;SDS011;24079;51.824;4.682;2023-11-21T03:14:39;19.15;;;8.80;;
37997;SDS011;24079;51.824;4.682;2023-11-21T03:17:05;23.30;;;9.55;;
37997;SDS011;24079;51.824;4.682;2023-11-21T03:19:31;25.35;;;9.88;;
37997;SDS011;24079;51.824;4.682;2023-11-21T03:21:57;23.63;;;10.20;;
37997;SDS011;24079;51.824;4.682;2023-11-21T03:24:23;32.03;;;10.30;;
37997;SDS011;24079;51.824;4.682;2023-11-21T03:26:48;25.95;;;10.23;;
37997;SDS011;24079;51.824;4.682;2023-11-21T03:29:15;35.17;;;10.98;;
37997;SDS011;24079;51.824;4.682;2023-11-21T03:31:41;30.38;;;10.38;;
37997;SDS011;24079;51.824;4.682;2023-11-21T03:34:10;22.63;;;9.77;;
37997;SDS011;24079;51.824;4.682;2023-11-21T03:36:40;21.10;;;9.40;;
37997;SDS011;24079;51.824;4.682;2023-11-21T03:39:05;21.05;;;9.02;;
37997;SDS011;24079;51.824;4.682;2023-11-21T03:41:31;21.70;;;9.65;;
37997;SDS011;24079;51.824;4.682;2023-11-21T03:43:57;20.98;;;9.20;;
37997;SDS011;24079;51.824;4.682;2023-11-21T03:46:22;19.77;;;9.32;;
37997;SDS011;24079;51.824;4.682;2023-11-21T03:48:48;25.75;;;9.43;;
37997;SDS011;24079;51.824;4.682;2023-11-21T03:51:13;21.95;;;9.70;;
37997;SDS011;24079;51.824;4.682;2023-11-21T03:53:39;19.02;;;9.05;;
37997;SDS011;24079;51.824;4.682;2023-11-21T03:56:05;21.83;;;10.07;;
37997;SDS011;24079;51.824;4.682;2023-11-21T03:58:31;24.55;;;10.73;;
37997;SDS011;24079;51.824;4.682;2023-11-21T04:00:56;25.30;;;9.52;;
37997;SDS011;24079;51.824;4.682;2023-11-21T04:03:22;26.65;;;10.82;;
37997;SDS011;24079;51.824;4.682;2023-11-21T04:05:47;24.48;;;10.05;;
37997;SDS011;24079;51.824;4.682;2023-11-21T04:08:13;21.20;;;10.35;;
37997;SDS011;24079;51.824;4.682;2023-11-21T04:10:39;26.95;;;11.32;;
37997;SDS011;24079;51.824;4.682;2023-11-21T04:13:05;26.63;;;11.55;;
37997;SDS011;24079;51.824;4.682;2023-11-21T04:15:31;20.38;;;10.15;;
37997;SDS011;24079;51.824;4.682;2023-11-21T04:17:57;23.52;;;9.68;;
37997;SDS011;24079;51.824;4.682;2023-11-21T04:20:23;23.08;;;10.45;;
37997;SDS011;24079;51.824;4.682;2023-11-21T04:22:49;21.15;;;10.48;;
37997;SDS011;24079;51.824;4.682;2023-11-21T04:25:15;25.17;;;10.32;;
37997;SDS011;24079;51.824;4.682;2023-11-21T04:27:41;23.40;;;10.27;;
37997;SDS011;24079;51.824;4.682;2023-11-21T04:30:09;23.27;;;11.10;;
37997;SDS011;24079;51.824;4.682;2023-11-21T04:32:35;19.67;;;9.75;;
37997;SDS011;24079;51.824;4.682;2023-11-21T04:35:01;21.65;;;9.73;;
37997;SDS011;24079;51.824;4.682;2023-11-21T04:37:27;21.00;;;9.20;;
37997;SDS011;24079;51.824;4.682;2023-11-21T04:39:52;21.90;;;9.40;;
37997;SDS011;24079;51.824;4.682;2023-11-21T04:42:18;23.75;;;10.23;;
37997;SDS011;24079;51.824;4.682;2023-11-21T04:44:43;19.90;;;9.80;;
37997;SDS011;24079;51.824;4.682;2023-11-21T04:47:09;22.88;;;9.68;;
37997;SDS011;24079;51.824;4.682;2023-11-21T04:49:35;20.05;;;8.55;;
37997;SDS011;24079;51.824;4.682;2023-11-21T04:52:01;19.85;;;8.70;;
37997;SDS011;24079;51.824;4.682;2023-11-21T04:54:29;19.38;;;9.63;;
37997;SDS011;24079;51.824;4.682;2023-11-21T04:56:56;19.77;;;9.20;;
37997;SDS011;24079;51.824;4.682;2023-11-21T04:59:22;24.52;;;8.93;;
37997;SDS011;24079;51.824;4.682;2023-11-21T05:01:52;19.27;;;8.77;;
37997;SDS011;24079;51.824;4.682;2023-11-21T05:04:38;19.38;;;8.93;;
37997;SDS011;24079;51.824;4.682;2023-11-21T05:07:04;21.08;;;8.75;;
37997;SDS011;24079;51.824;4.682;2023-11-21T05:09:31;18.05;;;8.13;;
37997;SDS011;24079;51.824;4.682;2023-11-21T05:11:58;18.80;;;9.13;;
37997;SDS011;24079;51.824;4.682;2023-11-21T05:14:24;16.65;;;9.13;;
37997;SDS011;24079;51.824;4.682;2023-11-21T05:16:50;15.43;;;7.45;;
37997;SDS011;24079;51.824;4.682;2023-11-21T05:19:17;20.00;;;8.43;;
37997;SDS011;24079;51.824;4.682;2023-11-21T05:21:43;17.63;;;8.85;;
37997;SDS011;24079;51.824;4.682;2023-11-21T05:24:09;18.67;;;8.85;;
37997;SDS011;24079;51.824;4.682;2023-11-21T05:26:35;17.60;;;8.73;;
37997;SDS011;24079;51.824;4.682;2023-11-21T05:29:01;23.50;;;10.80;;
37997;SDS011;24079;51.824;4.682;2023-11-21T05:31:27;20.33;;;10.48;;
37997;SDS011;24079;51.824;4.682;2023-11-21T05:33:53;20.35;;;9.95;;
37997;SDS011;24079;51.824;4.682;2023-11-21T05:36:19;23.48;;;11.95;;
37997;SDS011;24079;51.824;4.682;2023-11-21T05:38:45;23.73;;;11.65;;
37997;SDS011;24079;51.824;4.682;2023-11-21T05:41:11;22.92;;;11.65;;
37997;SDS011;24079;51.824;4.682;2023-11-21T05:43:39;24.63;;;11.52;;
37997;SDS011;24079;51.824;4.682;2023-11-21T05:46:05;25.08;;;11.75;;
37997;SDS011;24079;51.824;4.682;2023-11-21T05:48:32;23.27;;;10.90;;
37997;SDS011;24079;51.824;4.682;2023-11-21T05:50:58;23.63;;;11.93;;
37997;SDS011;24079;51.824;4.682;2023-11-21T05:53:24;28.08;;;12.98;;
37997;SDS011;24079;51.824;4.682;2023-11-21T05:55:51;24.15;;;11.63;;
37997;SDS011;24079;51.824;4.682;2023-11-21T05:58:17;23.25;;;11.70;;
37997;SDS011;24079;51.824;4.682;2023-11-21T06:00:43;22.90;;;11.25;;
37997;SDS011;24079;51.824;4.682;2023-11-21T06:03:09;22.50;;;11.30;;
37997;SDS011;24079;51.824;4.682;2023-11-21T06:05:35;21.90;;;10.77;;
37997;SDS011;24079;51.824;4.682;2023-11-21T06:08:01;24.88;;;11.55;;
37997;SDS011;24079;51.824;4.682;2023-11-21T06:10:27;24.40;;;10.70;;
37997;SDS011;24079;51.824;4.682;2023-11-21T06:12:53;22.80;;;11.40;;
37997;SDS011;24079;51.824;4.682;2023-11-21T06:15:19;23.40;;;11.75;;
37997;SDS011;24079;51.824;4.682;2023-11-21T06:17:47;21.17;;;11.25;;
37997;SDS011;24079;51.824;4.682;2023-11-21T06:20:20;21.17;;;10.35;;
37997;SDS011;24079;51.824;4.682;2023-11-21T06:22:48;17.88;;;9.65;;
37997;SDS011;24079;51.824;4.682;2023-11-21T06:25:16;19.65;;;10.32;;
37997;SDS011;24079;51.824;4.682;2023-11-21T06:27:43;21.80;;;11.10;;
37997;SDS011;24079;51.824;4.682;2023-11-21T06:30:09;22.80;;;10.75;;
37997;SDS011;24079;51.824;4.682;2023-11-21T06:32:37;19.83;;;11.07;;
37997;SDS011;24079;51.824;4.682;2023-11-21T06:35:03;21.90;;;10.55;;
37997;SDS011;24079;51.824;4.682;2023-11-21T06:37:30;23.50;;;12.38;;
37997;SDS011;24079;51.824;4.682;2023-11-21T06:39:57;21.30;;;11.68;;
37997;SDS011;24079;51.824;4.682;2023-11-21T06:42:23;22.42;;;10.85;;
37997;SDS011;24079;51.824;4.682;2023-11-21T06:44:49;22.50;;;10.70;;
37997;SDS011;24079;51.824;4.682;2023-11-21T06:47:35;22.00;;;10.55;;
37997;SDS011;24079;51.824;4.682;2023-11-21T06:50:03;20.58;;;10.55;;
37997;SDS011;24079;51.824;4.682;2023-11-21T06:52:29;21.63;;;10.00;;
37997;SDS011;24079;51.824;4.682;2023-11-21T06:55:14;23.35;;;10.05;;
37997;SDS011;24079;51.824;4.682;2023-11-21T06:58:00;21.45;;;10.00;;
37997;SDS011;24079;51.824;4.682;2023-11-21T07:00:46;20.50;;;9.90;;
37997;SDS011;24079;51.824;4.682;2023-11-21T07:03:31;24.20;;;10.38;;
37997;SDS011;24079;51.824;4.682;2023-11-21T07:06:17;18.02;;;9.90;;
37997;SDS011;24079;51.824;4.682;2023-11-21T07:08:42;17.95;;;9.52;;
37997;SDS011;24079;51.824;4.682;2023-11-21T07:11:08;23.40;;;11.77;;
37997;SDS011;24079;51.824;4.682;2023-11-21T07:13:33;32.30;;;15.90;;
37997;SDS011;24079;51.824;4.682;2023-11-21T07:15:59;32.80;;;14.95;;
37997;SDS011;24079;51.824;4.682;2023-11-21T07:18:25;35.20;;;17.98;;
37997;SDS011;24079;51.824;4.682;2023-11-21T07:20:50;25.35;;;12.93;;
37997;SDS011;24079;51.824;4.682;2023-11-21T07:23:17;22.05;;;11.25;;
37997;SDS011;24079;51.824;4.682;2023-11-21T07:25:42;25.85;;;10.85;;
37997;SDS011;24079;51.824;4.682;2023-11-21T07:28:08;20.27;;;10.13;;
37997;SDS011;24079;51.824;4.682;2023-11-21T07:30:34;18.80;;;9.88;;
37997;SDS011;24079;51.824;4.682;2023-11-21T07:33:10;24.25;;;10.52;;
37997;SDS011;24079;51.824;4.682;2023-11-21T07:35:36;21.90;;;11.13;;
37997;SDS011;24079;51.824;4.682;2023-11-21T07:38:02;19.20;;;10.13;;
37997;SDS011;24079;51.824;4.682;2023-11-21T07:40:29;23.20;;;10.75;;
37997;SDS011;24079;51.824;4.682;2023-11-21T07:42:55;19.23;;;10.43;;
37997;SDS011;24079;51.824;4.682;2023-11-21T07:45:23;23.15;;;9.95;;
37997;SDS011;24079;51.824;4.682;2023-11-21T07:47:49;20.75;;;10.38;;
37997;SDS011;24079;51.824;4.682;2023-11-21T07:50:15;22.67;;;11.32;;
37997;SDS011;24079;51.824;4.682;2023-11-21T07:52:41;21.02;;;10.93;;
37997;SDS011;24079;51.824;4.682;2023-11-21T07:55:07;21.35;;;12.95;;
37997;SDS011;24079;51.824;4.682;2023-11-21T07:57:33;22.73;;;11.65;;
37997;SDS011;24079;51.824;4.682;2023-11-21T07:59:59;24.35;;;10.18;;
37997;SDS011;24079;51.824;4.682;2023-11-21T08:02:25;23.77;;;9.50;;
37997;SDS011;24079;51.824;4.682;2023-11-21T08:04:52;19.42;;;8.75;;
37997;SDS011;24079;51.824;4.682;2023-11-21T08:07:18;17.30;;;8.38;;
37997;SDS011;24079;51.824;4.682;2023-11-21T08:09:44;21.63;;;8.30;;
37997;SDS011;24079;51.824;4.682;2023-11-21T08:12:11;19.35;;;8.60;;
37997;SDS011;24079;51.824;4.682;2023-11-21T08:14:37;20.63;;;8.90;;
37997;SDS011;24079;51.824;4.682;2023-11-21T08:17:04;16.05;;;8.70;;
37997;SDS011;24079;51.824;4.682;2023-11-21T08:19:29;17.40;;;7.43;;
37997;SDS011;24079;51.824;4.682;2023-11-21T08:21:55;27.40;;;9.70;;
37997;SDS011;24079;51.824;4.682;2023-11-21T08:24:21;16.80;;;8.60;;
37997;SDS011;24079;51.824;4.682;2023-11-21T08:26:47;19.52;;;8.20;;
37997;SDS011;24079;51.824;4.682;2023-11-21T08:29:14;14.77;;;7.28;;
37997;SDS011;24079;51.824;4.682;2023-11-21T08:31:40;21.20;;;7.25;;
37997;SDS011;24079;51.824;4.682;2023-11-21T08:34:06;15.38;;;7.45;;
37997;SDS011;24079;51.824;4.682;2023-11-21T08:36:32;18.85;;;6.65;;
37997;SDS011;24079;51.824;4.682;2023-11-21T08:38:58;15.35;;;7.35;;
37997;SDS011;24079;51.824;4.682;2023-11-21T08:41:23;14.98;;;7.55;;
37997;SDS011;24079;51.824;4.682;2023-11-21T08:43:50;17.55;;;7.55;;
37997;SDS011;24079;51.824;4.682;2023-11-21T08:46:16;18.85;;;7.63;;
37997;SDS011;24079;51.824;4.682;2023-11-21T08:48:44;16.58;;;7.60;;
37997;SDS011;24079;51.824;4.682;2023-11-21T08:51:10;17.98;;;7.60;;
37997;SDS011;24079;51.824;4.682;2023-11-21T08:53:36;20.95;;;8.10;;
37997;SDS011;24079;51.824;4.682;2023-11-21T08:56:02;14.88;;;8.50;;
37997;SDS011;24079;51.824;4.682;2023-11-21T08:58:29;19.05;;;8.73;;
37997;SDS011;24079;51.824;4.682;2023-11-21T09:00:57;15.80;;;8.88;;
37997;SDS011;24079;51.824;4.682;2023-11-21T09:03:22;17.17;;;8.75;;
37997;SDS011;24079;51.824;4.682;2023-11-21T09:05:48;19.38;;;8.50;;
37997;SDS011;24079;51.824;4.682;2023-11-21T09:08:14;19.08;;;9.38;;
37997;SDS011;24079;51.824;4.682;2023-11-21T09:10:39;16.48;;;8.13;;
37997;SDS011;24079;51.824;4.682;2023-11-21T09:13:07;19.30;;;8.38;;
37997;SDS011;24079;51.824;4.682;2023-11-21T09:15:34;17.23;;;8.82;;
37997;SDS011;24079;51.824;4.682;2023-11-21T09:18:00;18.92;;;7.97;;
37997;SDS011;24079;51.824;4.682;2023-11-21T09:20:26;16.50;;;7.63;;
37997;SDS011;24079;51.824;4.682;2023-11-21T09:22:52;17.25;;;8.50;;
37997;SDS011;24079;51.824;4.682;2023-11-21T09:25:19;16.40;;;7.38;;
37997;SDS011;24079;51.824;4.682;2023-11-21T09:27:46;17.73;;;8.32;;
37997;SDS011;24079;51.824;4.682;2023-11-21T09:30:12;22.02;;;8.32;;
37997;SDS011;24079;51.824;4.682;2023-11-21T09:32:40;13.43;;;7.82;;
37997;SDS011;24079;51.824;4.682;2023-11-21T09:35:06;19.23;;;8.40;;
37997;SDS011;24079;51.824;4.682;2023-11-21T09:37:33;18.45;;;8.20;;
37997;SDS011;24079;51.824;4.682;2023-11-21T09:40:03;16.40;;;8.10;;
37997;SDS011;24079;51.824;4.682;2023-11-21T09:42:38;16.15;;;7.53;;
37997;SDS011;24079;51.824;4.682;2023-11-21T09:47:46;14.55;;;8.30;;
37997;SDS011;24079;51.824;4.682;2023-11-21T09:50:14;18.73;;;8.80;;
37997;SDS011;24079;51.824;4.682;2023-11-21T09:52:48;16.25;;;8.43;;
37997;SDS011;24079;51.824;4.682;2023-11-21T09:55:36;13.68;;;8.07;;
37997;SDS011;24079;51.824;4.682;2023-11-21T09:58:04;14.13;;;8.02;;
37997;SDS011;24079;51.824;4.682;2023-11-21T10:00:33;17.58;;;9.05;;
37997;SDS011;24079;51.824;4.682;2023-11-21T10:03:00;16.27;;;9.05;;
37997;SDS011;24079;51.824;4.682;2023-11-21T10:05:28;13.15;;;8.02;;
37997;SDS011;24079;51.824;4.682;2023-11-21T10:07:54;20.30;;;8.02;;
37997;SDS011;24079;51.824;4.682;2023-11-21T10:10:22;16.42;;;8.82;;
37997;SDS011;24079;51.824;4.682;2023-11-21T10:12:51;16.13;;;7.63;;
37997;SDS011;24079;51.824;4.682;2023-11-21T10:15:22;13.02;;;7.25;;
37997;SDS011;24079;51.824;4.682;2023-11-21T10:17:50;12.73;;;6.30;;
37997;SDS011;24079;51.824;4.682;2023-11-21T10:20:27;10.43;;;5.97;;
37997;SDS011;24079;51.824;4.682;2023-11-21T10:22:54;12.63;;;4.88;;
37997;SDS011;24079;51.824;4.682;2023-11-21T10:25:22;8.40;;;4.63;;
37997;SDS011;24079;51.824;4.682;2023-11-21T10:27:48;6.72;;;4.80;;
37997;SDS011;24079;51.824;4.682;2023-11-21T10:30:17;9.75;;;4.57;;
37997;SDS011;24079;51.824;4.682;2023-11-21T10:32:44;7.32;;;4.65;;
37997;SDS011;24079;51.824;4.682;2023-11-21T10:35:10;10.30;;;5.60;;
37997;SDS011;24079;51.824;4.682;2023-11-21T10:37:39;10.05;;;5.60;;
37997;SDS011;24079;51.824;4.682;2023-11-21T10:40:09;8.43;;;5.20;;
37997;SDS011;24079;51.824;4.682;2023-11-21T10:42:39;10.02;;;5.43;;
37997;SDS011;24079;51.824;4.682;2023-11-21T10:45:06;10.05;;;5.60;;
37997;SDS011;24079;51.824;4.682;2023-11-21T10:47:40;9.38;;;4.85;;
37997;SDS011;24079;51.824;4.682;2023-11-21T10:50:07;8.48;;;4.63;;
37997;SDS011;24079;51.824;4.682;2023-11-21T10:52:37;6.97;;;4.35;;
37997;SDS011;24079;51.824;4.682;2023-11-21T10:55:17;6.03;;;4.20;;
37997;SDS011;24079;51.824;4.682;2023-11-21T10:57:52;7.85;;;3.70;;
37997;SDS011;24079;51.824;4.682;2023-11-21T11:00:19;6.35;;;3.55;;
37997;SDS011;24079;51.824;4.682;2023-11-21T11:02:50;6.22;;;3.78;;
37997;SDS011;24079;51.824;4.682;2023-11-21T11:05:19;7.68;;;3.88;;
37997;SDS011;24079;51.824;4.682;2023-11-21T11:07:56;7.03;;;4.18;;
37997;SDS011;24079;51.824;4.682;2023-11-21T11:10:28;8.40;;;4.38;;
37997;SDS011;24079;51.824;4.682;2023-11-21T11:12:57;8.85;;;5.10;;
37997;SDS011;24079;51.824;4.682;2023-11-21T11:15:25;11.70;;;5.35;;
37997;SDS011;24079;51.824;4.682;2023-11-21T11:17:52;9.43;;;5.32;;
37997;SDS011;24079;51.824;4.682;2023-11-21T11:20:22;10.73;;;6.32;;
37997;SDS011;24079;51.824;4.682;2023-11-21T11:28:29;13.68;;;5.90;;
37997;SDS011;24079;51.824;4.682;2023-11-21T11:31:21;8.07;;;4.82;;
37997;SDS011;24079;51.824;4.682;2023-11-21T11:34:14;10.27;;;5.07;;
37997;SDS011;24079;51.824;4.682;2023-11-21T11:37:04;11.73;;;5.22;;
37997;SDS011;24079;51.824;4.682;2023-11-21T11:39:43;8.82;;;5.15;;
37997;SDS011;24079;51.824;4.682;2023-11-21T11:42:13;9.50;;;5.38;;
37997;SDS011;24079;51.824;4.682;2023-11-21T11:49:47;12.10;;;7.15;;
37997;SDS011;24079;51.824;4.682;2023-11-21T11:52:40;13.13;;;7.07;;
37997;SDS011;24079;51.824;4.682;2023-11-21T11:55:17;15.90;;;8.02;;
37997;SDS011;24079;51.824;4.682;2023-11-21T11:57:45;14.68;;;7.80;;
37997;SDS011;24079;51.824;4.682;2023-11-21T12:00:34;15.77;;;8.20;;
37997;SDS011;24079;51.824;4.682;2023-11-21T12:03:06;17.35;;;8.27;;
37997;SDS011;24079;51.824;4.682;2023-11-21T12:05:34;16.42;;;8.23;;
37997;SDS011;24079;51.824;4.682;2023-11-21T12:08:04;20.40;;;10.48;;
37997;SDS011;24079;51.824;4.682;2023-11-21T12:10:35;20.20;;;10.75;;
37997;SDS011;24079;51.824;4.682;2023-11-21T12:13:06;17.45;;;9.23;;
37997;SDS011;24079;51.824;4.682;2023-11-21T12:15:33;18.23;;;9.63;;
37997;SDS011;24079;51.824;4.682;2023-11-21T12:18:00;18.05;;;10.30;;
37997;SDS011;24079;51.824;4.682;2023-11-21T12:20:27;15.52;;;9.68;;
37997;SDS011;24079;51.824;4.682;2023-11-21T12:22:54;17.42;;;9.80;;
37997;SDS011;24079;51.824;4.682;2023-11-21T12:25:25;18.10;;;9.43;;
37997;SDS011;24079;51.824;4.682;2023-11-21T12:27:57;17.13;;;10.05;;
37997;SDS011;24079;51.824;4.682;2023-11-21T12:30:31;20.30;;;9.82;;
37997;SDS011;24079;51.824;4.682;2023-11-21T12:33:03;16.95;;;9.50;;
37997;SDS011;24079;51.824;4.682;2023-11-21T12:35:32;19.92;;;11.25;;
37997;SDS011;24079;51.824;4.682;2023-11-21T12:37:59;18.08;;;10.10;;
37997;SDS011;24079;51.824;4.682;2023-11-21T12:40:28;20.92;;;10.27;;
37997;SDS011;24079;51.824;4.682;2023-11-21T12:42:58;21.17;;;10.80;;
37997;SDS011;24079;51.824;4.682;2023-11-21T12:45:27;21.48;;;10.20;;
37997;SDS011;24079;51.824;4.682;2023-11-21T12:48:00;21.98;;;11.30;;
37997;SDS011;24079;51.824;4.682;2023-11-21T12:50:33;19.67;;;10.57;;
37997;SDS011;24079;51.824;4.682;2023-11-21T12:55:35;21.90;;;10.73;;
37997;SDS011;24079;51.824;4.682;2023-11-21T12:58:08;17.85;;;9.38;;
37997;SDS011;24079;51.824;4.682;2023-11-21T13:00:36;19.92;;;10.75;;
37997;SDS011;24079;51.824;4.682;2023-11-21T13:03:07;21.42;;;11.55;;
37997;SDS011;24079;51.824;4.682;2023-11-21T13:08:05;18.52;;;10.68;;
37997;SDS011;24079;51.824;4.682;2023-11-21T13:10:37;21.95;;;10.30;;
37997;SDS011;24079;51.824;4.682;2023-11-21T13:13:05;19.63;;;10.07;;
37997;SDS011;24079;51.824;4.682;2023-11-21T13:15:34;18.35;;;10.45;;
37997;SDS011;24079;51.824;4.682;2023-11-21T13:18:06;20.10;;;10.57;;
37997;SDS011;24079;51.824;4.682;2023-11-21T13:20:32;19.33;;;10.00;;
37997;SDS011;24079;51.824;4.682;2023-11-21T13:22:59;20.08;;;9.98;;
37997;SDS011;24079;51.824;4.682;2023-11-21T13:25:27;18.38;;;10.35;;
37997;SDS011;24079;51.824;4.682;2023-11-21T13:27:54;18.58;;;9.95;;
37997;SDS011;24079;51.824;4.682;2023-11-21T13:30:20;19.67;;;10.45;;
37997;SDS011;24079;51.824;4.682;2023-11-21T13:32:59;18.08;;;9.63;;
37997;SDS011;24079;51.824;4.682;2023-11-21T13:35:35;19.35;;;10.27;;
37997;SDS011;24079;51.824;4.682;2023-11-21T13:38:16;14.90;;;8.50;;
37997;SDS011;24079;51.824;4.682;2023-11-21T13:41:01;20.50;;;9.95;;
37997;SDS011;24079;51.824;4.682;2023-11-21T13:43:28;18.13;;;9.23;;
37997;SDS011;24079;51.824;4.682;2023-11-21T13:45:55;19.63;;;9.48;;
37997;SDS011;24079;51.824;4.682;2023-11-21T13:48:25;16.73;;;8.93;;
37997;SDS011;24079;51.824;4.682;2023-11-21T13:50:57;19.08;;;9.43;;
37997;SDS011;24079;51.824;4.682;2023-11-21T13:53:26;17.85;;;9.15;;
37997;SDS011;24079;51.824;4.682;2023-11-21T13:55:53;16.65;;;9.43;;
37997;SDS011;24079;51.824;4.682;2023-11-21T13:58:20;15.93;;;8.93;;
37997;SDS011;24079;51.824;4.682;2023-11-21T14:00:58;20.95;;;11.07;;
37997;SDS011;24079;51.824;4.682;2023-11-21T14:03:24;18.40;;;10.35;;
37997;SDS011;24079;51.824;4.682;2023-11-21T14:06:03;19.85;;;11.73;;
37997;SDS011;24079;51.824;4.682;2023-11-21T14:08:39;20.27;;;11.40;;
37997;SDS011;24079;51.824;4.682;2023-11-21T14:11:05;18.90;;;10.80;;
37997;SDS011;24079;51.824;4.682;2023-11-21T14:13:32;18.55;;;10.77;;
37997;SDS011;24079;51.824;4.682;2023-11-21T14:15:59;17.70;;;10.18;;
37997;SDS011;24079;51.824;4.682;2023-11-21T14:18:27;19.48;;;11.02;;
37997;SDS011;24079;51.824;4.682;2023-11-21T14:21:04;22.10;;;10.93;;
37997;SDS011;24079;51.824;4.682;2023-11-21T14:23:31;23.02;;;11.23;;
37997;SDS011;24079;51.824;4.682;2023-11-21T14:25:58;20.70;;;12.25;;
37997;SDS011;24079;51.824;4.682;2023-11-21T14:28:26;20.13;;;12.15;;
37997;SDS011;24079;51.824;4.682;2023-11-21T14:30:52;24.55;;;13.73;;
37997;SDS011;24079;51.824;4.682;2023-11-21T14:33:19;24.95;;;13.15;;
37997;SDS011;24079;51.824;4.682;2023-11-21T14:35:45;26.00;;;14.20;;
37997;SDS011;24079;51.824;4.682;2023-11-21T14:38:11;24.88;;;13.50;;
37997;SDS011;24079;51.824;4.682;2023-11-21T14:40:39;25.35;;;13.60;;
37997;SDS011;24079;51.824;4.682;2023-11-21T14:43:06;25.27;;;14.40;;
37997;SDS011;24079;51.824;4.682;2023-11-21T14:45:32;27.35;;;15.20;;
37997;SDS011;24079;51.824;4.682;2023-11-21T14:47:58;28.52;;;16.60;;
37997;SDS011;24079;51.824;4.682;2023-11-21T14:50:30;28.42;;;16.70;;
37997;SDS011;24079;51.824;4.682;2023-11-21T14:53:10;28.10;;;16.08;;